Time;durP1;ratioP1;P1;durP2;ratioP2;P2;SDS_P1;SDS_P2;PMS_P1;PMS_P2;Temp;Humidity;BMP_temperature;BMP_pressure;BME280_temperature;BME280_humidity;BME280_pressure;Samples;Min_cycle;Max_cycle;Signal;HPM_P1;HPM_P2
2021/08/08 00:00:11;;;;;;;4.55;3.28;;;15.90;99.90;;;;;;5051857;28;20037;-77
2021/08/08 00:02:37;;;;;;;16.08;3.03;;;15.90;99.90;;;;;;5057225;28;20120;-76
2021/08/08 00:05:09;;;;;;;7.03;3.50;;;15.90;99.90;;;;;;5052011;28;20014;-76
2021/08/08 00:07:35;;;;;;;9.23;4.40;;;15.80;99.90;;;;;;5059523;28;20040;-75
2021/08/08 00:10:00;;;;;;;5.38;2.55;;;15.80;99.90;;;;;;5054452;28;20056;-76
2021/08/08 00:12:26;;;;;;;7.85;3.30;;;15.80;99.90;;;;;;5058707;28;20591;-75
2021/08/08 00:14:52;;;;;;;6.07;2.90;;;15.60;99.90;;;;;;5059091;28;20477;-76
2021/08/08 00:17:19;;;;;;;10.77;3.78;;;15.60;99.90;;;;;;5060099;28;20068;-75
2021/08/08 00:19:45;;;;;;;5.57;2.65;;;15.50;99.90;;;;;;5057452;28;20052;-77
2021/08/08 00:22:11;;;;;;;12.60;3.03;;;15.50;99.90;;;;;;5063174;28;20047;-78
2021/08/08 00:24:37;;;;;;;7.40;3.08;;;15.50;99.90;;;;;;5056999;28;20588;-78
2021/08/08 00:27:03;;;;;;;5.10;2.80;;;15.40;99.90;;;;;;5060756;28;20033;-77
2021/08/08 00:29:28;;;;;;;5.20;2.80;;;15.40;99.90;;;;;;5056445;28;20037;-74
2021/08/08 00:31:54;;;;;;;5.68;2.72;;;15.30;99.90;;;;;;5063488;28;20041;-74
2021/08/08 00:34:19;;;;;;;4.47;2.35;;;15.30;99.90;;;;;;5056562;28;20048;-73
2021/08/08 00:36:45;;;;;;;3.95;2.13;;;15.20;99.90;;;;;;5058712;28;20037;-72
2021/08/08 00:39:14;;;;;;;2.42;1.70;;;15.20;99.90;;;;;;5057360;28;20053;-73
2021/08/08 00:41:40;;;;;;;7.32;2.22;;;15.00;99.90;;;;;;5060945;28;20018;-74
2021/08/08 00:44:06;;;;;;;3.85;2.20;;;15.00;99.90;;;;;;5061559;28;20060;-73
2021/08/08 00:46:32;;;;;;;1.60;1.33;;;15.00;99.90;;;;;;5056415;28;20033;-73
2021/08/08 00:48:58;;;;;;;6.35;2.55;;;14.90;99.90;;;;;;5051129;28;20024;-73
2021/08/08 00:51:27;;;;;;;3.83;2.03;;;14.90;99.90;;;;;;5058010;28;20037;-74
2021/08/08 00:53:53;;;;;;;4.07;2.20;;;14.80;99.90;;;;;;5060147;28;20093;-73
2021/08/08 00:56:19;;;;;;;2.60;1.50;;;14.80;99.90;;;;;;5061884;28;20025;-74
2021/08/08 00:58:44;;;;;;;6.35;2.08;;;14.80;99.90;;;;;;5052443;28;20393;-75
2021/08/08 01:01:13;;;;;;;2.88;1.98;;;14.70;99.90;;;;;;5058735;28;20033;-73
2021/08/08 01:03:41;;;;;;;3.17;1.80;;;14.80;99.90;;;;;;5061345;28;20029;-75
2021/08/08 01:06:15;;;;;;;2.92;1.48;;;14.70;99.90;;;;;;5056496;28;20025;-72
2021/08/08 01:08:42;;;;;;;;;;;14.70;99.90;;;;;;5060032;28;20481;-73
2021/08/08 01:11:08;;;;;;;3.97;1.90;;;14.70;99.90;;;;;;5059487;28;19917;-73
2021/08/08 01:13:34;;;;;;;4.28;2.15;;;14.70;99.90;;;;;;5057986;28;20529;-75
2021/08/08 01:16:00;;;;;;;2.97;1.98;;;14.70;99.90;;;;;;5062499;28;20083;-74
2021/08/08 01:18:26;;;;;;;4.13;2.58;;;14.70;99.90;;;;;;5061714;28;20021;-75
2021/08/08 01:20:56;;;;;;;2.85;1.77;;;14.60;99.90;;;;;;5057569;28;20105;-74
2021/08/08 01:23:24;;;;;;;6.82;2.00;;;14.70;99.90;;;;;;5087156;28;20104;-75
2021/08/08 01:25:51;;;;;;;3.75;2.17;;;14.70;99.90;;;;;;5056285;28;20033;-74
2021/08/08 01:28:17;;;;;;;5.45;2.15;;;14.70;99.90;;;;;;5055733;28;20032;-73
2021/08/08 01:30:44;;;;;;;8.82;2.15;;;14.70;99.90;;;;;;5060029;28;20434;-75
2021/08/08 01:33:10;;;;;;;4.70;2.28;;;14.70;99.90;;;;;;5063224;28;20083;-74
2021/08/08 01:35:36;;;;;;;4.88;2.65;;;14.70;99.90;;;;;;5056026;28;20025;-73
2021/08/08 01:38:02;;;;;;;7.13;2.42;;;14.70;99.90;;;;;;5055925;28;20035;-73
2021/08/08 01:40:48;;;;;;;5.88;2.15;;;14.70;99.90;;;;;;5063903;28;20017;-74
2021/08/08 01:43:21;;;;;;;4.80;2.30;;;14.70;99.90;;;;;;5059171;28;20029;-74
2021/08/08 01:45:48;;;;;;;6.20;3.33;;;14.70;99.90;;;;;;5055348;28;20029;-73
2021/08/08 01:48:17;;;;;;;8.13;2.67;;;14.70;99.90;;;;;;5059600;28;20032;-73
2021/08/08 01:50:43;;;;;;;2.85;2.05;;;14.60;99.90;;;;;;5058315;28;20040;-75
2021/08/08 01:53:10;;;;;;;3.55;1.83;;;14.70;99.90;;;;;;5060124;28;20112;-73
2021/08/08 01:55:36;;;;;;;3.63;2.30;;;14.70;99.90;;;;;;5055845;28;20025;-75
2021/08/08 01:58:04;;;;;;;7.68;3.17;;;14.70;99.90;;;;;;5060156;28;20047;-73
2021/08/08 02:00:30;;;;;;;6.28;3.17;;;14.70;99.90;;;;;;5057155;28;20021;-74
2021/08/08 02:02:58;;;;;;;9.30;2.63;;;14.50;99.90;;;;;;5061783;28;20367;-77
2021/08/08 02:05:28;;;;;;;6.25;3.13;;;14.60;99.90;;;;;;5053138;28;20113;-75
2021/08/08 02:07:54;;;;;;;3.45;2.15;;;14.60;99.90;;;;;;5058302;28;20064;-74
2021/08/08 02:10:20;;;;;;;10.23;3.25;;;14.60;99.90;;;;;;5053284;28;20382;-76
2021/08/08 02:12:47;;;;;;;3.30;2.40;;;14.60;99.90;;;;;;5057694;28;20041;-75
2021/08/08 02:15:13;;;;;;;5.22;2.90;;;14.60;99.90;;;;;;5057417;28;20052;-74
2021/08/08 02:17:40;;;;;;;6.38;2.97;;;14.60;99.90;;;;;;5061000;28;20048;-75
2021/08/08 02:20:10;;;;;;;7.35;2.90;;;14.60;99.90;;;;;;5053827;28;20036;-74
2021/08/08 02:22:36;;;;;;;7.53;2.58;;;14.60;99.90;;;;;;5056239;28;20116;-73
2021/08/08 02:25:02;;;;;;;6.10;2.50;;;14.70;99.90;;;;;;5054414;28;20025;-74
2021/08/08 02:27:28;;;;;;;2.88;1.73;;;14.70;99.90;;;;;;5056860;28;20112;-74
2021/08/08 02:29:53;;;;;;;3.25;2.17;;;14.80;99.90;;;;;;5058573;28;20059;-74
2021/08/08 02:32:19;;;;;;;6.10;2.53;;;14.70;99.90;;;;;;5060446;28;20041;-75
2021/08/08 02:34:45;;;;;;;13.65;2.70;;;14.70;99.90;;;;;;5055718;28;20025;-74
2021/08/08 02:37:10;;;;;;;4.18;2.25;;;14.70;99.90;;;;;;5058952;28;20081;-72
2021/08/08 02:39:36;;;;;;;7.28;2.67;;;14.70;99.90;;;;;;5055670;28;20040;-76
2021/08/08 02:42:02;;;;;;;12.63;2.80;;;14.80;99.90;;;;;;5060995;28;20473;-73
2021/08/08 02:44:27;;;;;;;4.38;2.08;;;14.70;99.90;;;;;;5052933;28;20022;-72
2021/08/08 02:46:53;;;;;;;7.53;2.78;;;14.80;99.90;;;;;;5059092;28;20029;-74
2021/08/08 02:49:19;;;;;;;10.77;2.92;;;14.80;99.90;;;;;;5055307;28;20084;-74
2021/08/08 02:51:45;;;;;;;11.63;2.25;;;14.80;99.90;;;;;;5058788;28;20101;-72
2021/08/08 02:54:14;;;;;;;5.22;2.40;;;14.80;99.90;;;;;;5058979;28;20025;-75
2021/08/08 02:56:40;;;;;;;3.65;2.10;;;14.80;99.90;;;;;;5057458;28;20025;-76
2021/08/08 02:59:06;;;;;;;6.63;1.80;;;14.80;99.90;;;;;;5055855;28;20021;-74
2021/08/08 03:01:32;;;;;;;4.20;1.52;;;14.80;99.90;;;;;;5059413;28;20028;-74
2021/08/08 03:03:58;;;;;;;5.30;1.95;;;14.70;99.90;;;;;;5057950;28;20413;-76
2021/08/08 03:06:23;;;;;;;2.40;1.58;;;14.80;99.90;;;;;;5056513;28;20174;-73
2021/08/08 03:08:50;;;;;;;6.72;1.98;;;14.80;99.90;;;;;;5056289;28;20112;-77
2021/08/08 03:11:16;;;;;;;3.60;1.98;;;14.80;99.90;;;;;;5058631;28;20055;-73
2021/08/08 03:13:41;;;;;;;6.03;2.33;;;14.80;99.90;;;;;;5058277;28;20119;-72
2021/08/08 03:16:07;;;;;;;2.88;1.50;;;14.80;99.90;;;;;;5056905;28;20113;-71
2021/08/08 03:18:34;;;;;;;2.35;1.83;;;14.80;99.90;;;;;;5057189;28;20477;-75
2021/08/08 03:20:59;;;;;;;7.38;1.75;;;14.80;99.90;;;;;;5056147;28;20033;-72
2021/08/08 03:23:25;;;;;;;9.13;1.95;;;14.80;99.90;;;;;;5056926;28;20029;-71
2021/08/08 03:25:51;;;;;;;2.83;1.35;;;14.80;99.90;;;;;;5055397;28;20040;-72
2021/08/08 03:28:20;;;;;;;2.55;1.98;;;14.80;99.90;;;;;;5055695;28;20021;-73
2021/08/08 03:30:46;;;;;;;6.65;1.88;;;14.80;99.90;;;;;;5054779;28;20088;-72
2021/08/08 03:33:12;;;;;;;4.13;1.13;;;14.90;99.90;;;;;;5057766;28;20112;-73
2021/08/08 03:35:38;;;;;;;2.50;1.35;;;14.80;99.90;;;;;;5054262;28;20064;-70
2021/08/08 03:38:04;;;;;;;4.15;1.90;;;14.70;99.90;;;;;;5059641;28;20025;-71
2021/08/08 03:40:31;;;;;;;3.10;1.95;;;14.80;99.90;;;;;;5056838;28;20025;-76
2021/08/08 03:42:56;;;;;;;7.57;2.55;;;14.80;99.90;;;;;;5055059;28;20033;-68
2021/08/08 03:45:22;;;;;;;3.38;1.75;;;14.80;99.90;;;;;;5060918;28;20036;-73
2021/08/08 03:47:48;;;;;;;9.80;3.13;;;14.80;99.90;;;;;;5060695;28;20036;-75
2021/08/08 03:50:14;;;;;;;2.63;1.85;;;14.90;99.90;;;;;;5059315;28;20040;-72
2021/08/08 03:52:39;;;;;;;6.15;2.83;;;14.80;99.90;;;;;;5063917;28;20053;-73
2021/08/08 03:55:06;;;;;;;6.10;3.00;;;14.80;99.90;;;;;;5061473;28;20054;-74
2021/08/08 03:57:32;;;;;;;3.88;2.15;;;14.80;99.90;;;;;;5057946;28;20124;-71
2021/08/08 03:59:57;;;;;;;10.55;2.15;;;14.80;99.90;;;;;;5059912;28;20029;-74
2021/08/08 04:02:23;;;;;;;3.63;2.30;;;14.80;99.90;;;;;;5056226;28;20037;-73
2021/08/08 04:04:49;;;;;;;4.57;2.65;;;14.90;99.90;;;;;;5054837;28;20029;-68
2021/08/08 04:07:15;;;;;;;6.35;3.20;;;14.90;99.90;;;;;;5056525;28;20021;-75
2021/08/08 04:09:40;;;;;;;4.10;2.65;;;15.00;99.90;;;;;;5059418;28;20040;-76
2021/08/08 04:12:07;;;;;;;3.28;2.28;;;14.80;99.90;;;;;;5060235;28;20043;-72
2021/08/08 04:14:35;;;;;;;4.07;2.58;;;14.90;99.90;;;;;;5061469;28;20025;-71
2021/08/08 04:17:01;;;;;;;4.78;2.92;;;14.90;99.90;;;;;;5055422;28;20049;-71
2021/08/08 04:19:28;;;;;;;3.47;2.25;;;14.90;99.90;;;;;;5058415;28;20379;-74
2021/08/08 04:21:53;;;;;;;4.43;2.42;;;14.90;99.90;;;;;;5060027;28;20040;-75
2021/08/08 04:24:19;;;;;;;4.15;2.63;;;14.90;99.90;;;;;;5064101;28;20041;-73
2021/08/08 04:26:45;;;;;;;5.22;2.70;;;14.90;99.90;;;;;;5059348;28;20033;-75
2021/08/08 04:29:10;;;;;;;9.23;2.88;;;14.90;99.90;;;;;;5058448;28;20028;-74
2021/08/08 04:31:36;;;;;;;5.97;2.92;;;14.90;99.90;;;;;;5061996;28;20406;-73
2021/08/08 04:34:02;;;;;;;7.03;2.72;;;14.80;99.90;;;;;;5056666;28;20037;-73
2021/08/08 04:36:27;;;;;;;9.70;3.35;;;14.90;99.90;;;;;;5061953;28;20029;-69
2021/08/08 04:38:53;;;;;;;5.90;3.30;;;14.90;99.90;;;;;;5057424;28;20099;-68
2021/08/08 04:41:18;;;;;;;5.25;3.15;;;14.90;99.90;;;;;;5061341;28;20029;-71
2021/08/08 04:43:44;;;;;;;8.57;3.50;;;15.00;99.90;;;;;;5055623;28;20929;-71
2021/08/08 04:46:10;;;;;;;5.93;2.95;;;15.00;99.90;;;;;;5055905;28;20035;-73
2021/08/08 04:48:35;;;;;;;5.22;2.85;;;14.90;99.90;;;;;;5059415;28;20030;-73
2021/08/08 04:51:01;;;;;;;5.07;3.15;;;14.90;99.90;;;;;;5057460;28;20072;-69
2021/08/08 04:53:26;;;;;;;7.03;2.83;;;14.90;99.90;;;;;;5061397;28;20455;-72
2021/08/08 04:55:52;;;;;;;4.90;2.63;;;14.90;99.90;;;;;;5061489;28;20531;-71
2021/08/08 04:58:18;;;;;;;9.65;3.78;;;14.80;99.90;;;;;;5058992;28;20024;-71
2021/08/08 05:00:43;;;;;;;8.80;3.72;;;14.80;99.90;;;;;;5055460;28;20024;-77
2021/08/08 05:03:09;;;;;;;5.30;2.90;;;14.80;99.90;;;;;;5057512;28;20033;-72
2021/08/08 05:05:35;;;;;;;7.28;3.05;;;14.80;99.90;;;;;;5060735;28;20021;-69
2021/08/08 05:08:01;;;;;;;6.97;3.25;;;14.80;99.90;;;;;;5059033;28;20525;-73
2021/08/08 05:10:26;;;;;;;5.28;3.38;;;14.80;99.90;;;;;;5058527;28;20047;-69
2021/08/08 05:12:53;;;;;;;5.97;3.63;;;14.80;99.90;;;;;;5053901;28;20033;-71
2021/08/08 05:15:19;;;;;;;5.40;3.47;;;14.80;99.90;;;;;;5059722;28;20029;-73
2021/08/08 05:17:55;;;;;;;8.82;4.07;;;14.80;99.90;;;;;;5060064;28;20052;-71
2021/08/08 05:20:21;;;;;;;6.32;3.90;;;14.80;99.90;;;;;;5055320;28;20081;-74
2021/08/08 05:22:47;;;;;;;8.82;4.32;;;14.80;99.90;;;;;;5055989;28;20033;-72
2021/08/08 05:25:13;;;;;;;7.70;4.18;;;14.80;99.90;;;;;;5056930;28;20029;-74
2021/08/08 05:27:42;;;;;;;9.55;4.20;;;14.80;99.90;;;;;;5058497;28;20421;-72
2021/08/08 05:30:18;;;;;;;8.93;4.45;;;14.80;99.90;;;;;;5053779;28;20022;-76
2021/08/08 05:32:45;;;;;;;10.45;3.60;;;14.90;99.90;;;;;;5057898;28;20056;-74
2021/08/08 05:35:11;;;;;;;11.23;4.05;;;14.80;99.90;;;;;;5059037;28;20065;-77
2021/08/08 05:37:36;;;;;;;8.32;4.13;;;14.90;99.90;;;;;;5059974;28;20032;-69
2021/08/08 05:40:07;;;;;;;11.65;4.70;;;14.90;99.90;;;;;;5056477;28;20029;-74
2021/08/08 05:42:33;;;;;;;7.63;3.92;;;14.90;99.90;;;;;;5062234;28;20037;-76
2021/08/08 05:44:59;;;;;;;6.85;4.20;;;14.90;99.90;;;;;;5085755;28;20025;-72
2021/08/08 05:47:25;;;;;;;7.38;4.40;;;15.00;99.90;;;;;;5060673;28;20091;-74
2021/08/08 05:49:50;;;;;;;8.55;4.78;;;15.00;99.90;;;;;;5053385;28;20089;-72
2021/08/08 05:52:17;;;;;;;9.20;4.88;;;14.90;99.90;;;;;;5061965;28;20065;-75
2021/08/08 05:54:42;;;;;;;11.77;5.53;;;15.00;99.90;;;;;;5058577;28;20025;-73
2021/08/08 05:57:08;;;;;;;8.48;5.07;;;15.00;99.90;;;;;;5057625;28;20163;-73
2021/08/08 05:59:34;;;;;;;11.77;5.25;;;15.00;99.90;;;;;;5055206;28;20025;-74
2021/08/08 06:01:59;;;;;;;10.45;5.00;;;14.90;99.90;;;;;;5053729;28;20033;-75
2021/08/08 06:04:25;;;;;;;14.85;5.40;;;15.00;99.90;;;;;;5061603;28;20432;-71
2021/08/08 06:06:51;;;;;;;8.88;5.00;;;15.10;99.90;;;;;;5061162;28;20029;-71
2021/08/08 06:09:17;;;;;;;13.00;5.40;;;15.00;99.90;;;;;;5054600;28;20387;-75
2021/08/08 06:11:43;;;;;;;10.77;5.72;;;15.10;99.90;;;;;;5059256;28;20037;-73
2021/08/08 06:14:09;;;;;;;8.57;4.72;;;15.10;99.90;;;;;;5059495;28;20481;-75
2021/08/08 06:16:35;;;;;;;10.20;5.72;;;15.10;99.90;;;;;;5058220;28;20068;-75
2021/08/08 06:19:00;;;;;;;12.88;6.45;;;15.10;99.90;;;;;;5058529;28;20029;-69
2021/08/08 06:21:26;;;;;;;10.35;6.20;;;15.10;99.90;;;;;;5053965;28;20386;-71
2021/08/08 06:23:51;;;;;;;16.13;5.95;;;15.10;99.90;;;;;;5053823;28;20041;-70
2021/08/08 06:26:17;;;;;;;11.40;5.55;;;15.20;99.90;;;;;;5060021;28;20088;-72
2021/08/08 06:28:45;;;;;;;10.57;5.03;;;15.20;99.90;;;;;;5058091;28;20029;-70
2021/08/08 06:31:20;;;;;;;13.05;6.10;;;15.20;99.90;;;;;;5058520;28;20488;-75
2021/08/08 06:33:46;;;;;;;13.48;5.97;;;15.30;99.90;;;;;;5057297;28;20033;-70
2021/08/08 06:36:14;;;;;;;14.82;5.15;;;15.20;99.90;;;;;;5055303;28;20036;-72
2021/08/08 06:38:40;;;;;;;8.77;4.10;;;15.30;99.90;;;;;;5058082;28;20063;-69
2021/08/08 06:41:05;;;;;;;9.48;4.95;;;15.40;99.90;;;;;;5055610;28;20048;-70
2021/08/08 06:43:31;;;;;;;14.07;5.00;;;15.40;99.90;;;;;;5056882;28;20030;-69
2021/08/08 06:45:56;;;;;;;11.20;5.68;;;15.30;99.90;;;;;;5057268;28;20094;-69
2021/08/08 06:48:22;;;;;;;10.98;5.85;;;15.40;99.90;;;;;;5057032;28;20032;-71
2021/08/08 06:50:48;;;;;;;18.48;5.75;;;15.40;99.90;;;;;;5060362;28;20081;-71
2021/08/08 06:53:13;;;;;;;12.43;5.97;;;15.30;99.90;;;;;;5052690;28;20028;-71
2021/08/08 06:55:39;;;;;;;7.45;4.38;;;15.40;99.90;;;;;;5054781;28;20025;-71
2021/08/08 06:58:05;;;;;;;11.25;5.22;;;15.40;99.90;;;;;;5058900;28;20032;-73
2021/08/08 07:00:31;;;;;;;13.50;5.57;;;15.40;99.90;;;;;;5053717;28;20028;-72
2021/08/08 07:02:56;;;;;;;8.93;5.03;;;15.50;99.90;;;;;;5060574;28;20087;-73
2021/08/08 07:05:26;;;;;;;9.52;4.57;;;15.50;99.90;;;;;;5059051;28;20017;-74
2021/08/08 07:07:51;;;;;;;9.43;5.07;;;15.50;99.90;;;;;;5058168;28;20029;-72
2021/08/08 07:10:17;;;;;;;11.73;5.35;;;15.50;99.90;;;;;;5053787;28;20033;-68
2021/08/08 07:12:42;;;;;;;13.15;5.60;;;15.50;99.90;;;;;;5060401;28;20092;-73
2021/08/08 07:15:10;;;;;;;8.02;4.38;;;15.50;99.90;;;;;;5052552;28;20022;-71
2021/08/08 07:17:36;;;;;;;8.38;5.20;;;15.50;99.90;;;;;;5041145;28;20072;-75
2021/08/08 07:20:04;;;;;;;10.27;4.68;;;15.50;99.90;;;;;;5043910;28;20067;-75
2021/08/08 07:22:30;;;;;;;12.63;5.43;;;15.60;99.90;;;;;;5047684;28;20025;-72
2021/08/08 07:24:55;;;;;;;9.35;5.03;;;15.50;99.90;;;;;;5048173;28;20390;-75
2021/08/08 07:27:21;;;;;;;9.00;5.22;;;15.50;99.90;;;;;;5046947;28;20057;-75
2021/08/08 07:29:53;;;;;;;12.40;5.97;;;15.50;99.90;;;;;;5063919;28;20030;-73
2021/08/08 07:32:19;;;;;;;13.73;5.70;;;15.50;99.90;;;;;;5047806;28;20038;-71
2021/08/08 07:34:46;;;;;;;11.52;5.13;;;15.60;99.90;;;;;;5049076;28;20053;-74
2021/08/08 07:37:12;;;;;;;12.13;6.32;;;15.50;99.90;;;;;;5053232;28;20027;-69
2021/08/08 07:39:38;;;;;;;8.95;4.53;;;15.50;99.90;;;;;;5048432;28;20031;-71
2021/08/08 07:42:04;;;;;;;9.77;5.05;;;15.60;99.90;;;;;;5054245;28;20029;-73
2021/08/08 07:44:30;;;;;;;13.48;5.40;;;15.50;99.90;;;;;;5067583;28;20032;-68
2021/08/08 07:46:56;;;;;;;10.27;5.10;;;15.50;99.90;;;;;;5067415;28;20055;-72
2021/08/08 07:49:21;;;;;;;13.98;5.63;;;15.50;99.90;;;;;;5063917;28;20025;-71
2021/08/08 07:51:47;;;;;;;12.90;5.38;;;15.50;99.90;;;;;;5060975;28;20084;-71
2021/08/08 07:54:13;;;;;;;16.23;5.50;;;15.60;99.90;;;;;;5063054;28;20030;-75
2021/08/08 07:56:38;;;;;;;11.35;5.75;;;15.60;99.90;;;;;;5068480;28;20022;-72
2021/08/08 07:59:04;;;;;;;10.30;4.78;;;15.60;99.90;;;;;;5052056;28;20597;-72
2021/08/08 08:01:31;;;;;;;8.98;4.25;;;15.60;99.90;;;;;;5047713;28;20033;-76
2021/08/08 08:03:57;;;;;;;13.32;5.18;;;15.70;99.90;;;;;;5055228;28;20036;-71
2021/08/08 08:06:25;;;;;;;8.93;4.90;;;15.60;99.90;;;;;;5054903;28;20025;-70
2021/08/08 08:08:51;;;;;;;9.75;5.63;;;15.80;99.90;;;;;;5062153;28;20116;-70
2021/08/08 08:11:17;;;;;;;9.27;4.85;;;15.80;99.90;;;;;;5043834;28;20057;-73
2021/08/08 08:13:45;;;;;;;9.63;4.70;;;15.80;99.90;;;;;;5065975;28;20040;-73
2021/08/08 08:16:12;;;;;;;14.20;5.57;;;15.80;99.90;;;;;;5064040;28;20762;-73
2021/08/08 08:18:38;;;;;;;8.82;5.28;;;15.70;99.90;;;;;;5050795;28;20033;-73
2021/08/08 08:21:04;;;;;;;8.77;4.57;;;15.70;99.90;;;;;;5047269;28;20021;-73
2021/08/08 08:23:29;;;;;;;11.93;5.80;;;15.70;99.90;;;;;;5047339;28;20508;-71
2021/08/08 08:25:55;;;;;;;12.30;4.95;;;15.80;99.90;;;;;;5063091;28;20032;-73
2021/08/08 08:28:21;;;;;;;9.88;5.72;;;15.80;99.90;;;;;;5047654;28;20021;-73
2021/08/08 08:30:46;;;;;;;11.85;5.70;;;15.80;99.90;;;;;;5045457;28;20034;-72
2021/08/08 08:33:17;;;;;;;6.93;4.75;;;15.80;99.90;;;;;;5047471;28;20025;-72
2021/08/08 08:35:43;;;;;;;10.05;4.95;;;15.90;99.90;;;;;;5046954;28;20037;-73
2021/08/08 08:38:17;;;;;;;9.45;4.38;;;16.00;99.90;;;;;;5045356;28;20029;-73
2021/08/08 08:40:44;;;;;;;9.93;4.55;;;16.00;99.90;;;;;;5043458;28;20034;-73
2021/08/08 08:43:12;;;;;;;7.68;4.80;;;16.00;99.90;;;;;;5046710;28;20056;-74
2021/08/08 08:45:40;;;;;;;10.43;5.28;;;16.00;99.90;;;;;;5046722;28;20026;-72
2021/08/08 08:48:07;;;;;;;10.05;4.70;;;16.00;99.90;;;;;;5045876;28;20030;-74
2021/08/08 08:50:35;;;;;;;10.40;5.38;;;16.10;99.90;;;;;;5047142;28;20037;-73
2021/08/08 08:53:03;;;;;;;16.20;5.13;;;16.10;99.90;;;;;;5046814;28;20037;-72
2021/08/08 08:55:29;;;;;;;12.30;4.70;;;16.10;99.90;;;;;;5045633;28;20032;-72
2021/08/08 08:57:55;;;;;;;7.53;4.53;;;16.10;99.90;;;;;;5046964;28;20049;-72
2021/08/08 09:00:24;;;;;;;8.60;4.25;;;16.20;99.90;;;;;;5062059;28;20033;-69
2021/08/08 09:02:51;;;;;;;10.00;4.50;;;16.40;99.90;;;;;;5046796;28;20474;-71
2021/08/08 09:05:20;;;;;;;10.02;4.65;;;16.40;99.90;;;;;;5046788;28;20047;-75
2021/08/08 09:07:47;;;;;;;9.55;4.95;;;16.50;99.90;;;;;;5062079;28;20029;-73
2021/08/08 09:10:15;;;;;;;12.05;4.97;;;16.50;99.90;;;;;;5046873;28;20029;-73
2021/08/08 09:12:41;;;;;;;9.15;4.72;;;16.60;99.90;;;;;;5057564;28;20060;-69
2021/08/08 09:15:09;;;;;;;7.43;3.92;;;16.60;99.90;;;;;;5054836;28;20028;-72
2021/08/08 09:17:40;;;;;;;8.65;4.80;;;16.60;99.90;;;;;;5049293;28;20045;-72
2021/08/08 09:20:09;;;;;;;9.57;4.38;;;16.70;99.90;;;;;;5046654;28;20026;-72
2021/08/08 09:22:38;;;;;;;9.43;4.88;;;16.70;99.90;;;;;;5045170;28;20030;-72
2021/08/08 09:25:08;;;;;;;9.30;3.85;;;16.80;99.90;;;;;;5045352;28;20813;-71
2021/08/08 09:27:37;;;;;;;11.95;4.38;;;16.80;99.90;;;;;;5046703;28;20029;-73
2021/08/08 09:30:22;;;;;;;7.63;4.15;;;16.90;99.90;;;;;;5045052;28;20093;-74
2021/08/08 09:33:00;;;;;;;6.80;3.58;;;17.00;99.90;;;;;;5046162;28;20063;-70
2021/08/08 09:35:35;;;;;;;14.13;3.67;;;17.20;99.90;;;;;;5045066;28;20029;-71
2021/08/08 09:38:03;;;;;;;22.75;4.90;;;17.20;99.90;;;;;;5046256;28;20029;-73
2021/08/08 09:40:31;;;;;;;12.43;4.35;;;17.30;99.90;;;;;;5044603;28;20102;-69
2021/08/08 09:42:58;;;;;;;12.15;4.15;;;17.30;99.90;;;;;;5045258;28;20053;-70
2021/08/08 09:45:44;;;;;;;13.60;4.05;;;17.30;99.90;;;;;;5046044;28;20055;-71
2021/08/08 09:48:11;;;;;;;9.63;3.75;;;17.40;99.90;;;;;;5044905;28;20060;-73
2021/08/08 09:50:44;;;;;;;8.50;3.60;;;17.40;99.90;;;;;;5044617;28;20093;-72
2021/08/08 09:53:17;;;;;;;16.92;3.60;;;17.40;99.90;;;;;;5046025;28;20037;-74
2021/08/08 09:55:43;;;;;;;6.30;3.72;;;17.40;99.90;;;;;;5044762;28;20026;-72
2021/08/08 09:58:20;;;;;;;9.27;3.42;;;17.40;99.90;;;;;;5045840;28;20123;-72
2021/08/08 10:00:46;;;;;;;5.93;3.17;;;17.40;99.90;;;;;;5045834;28;20032;-71
2021/08/08 10:03:15;;;;;;;21.33;4.53;;;17.40;99.90;;;;;;5045921;28;20021;-70
2021/08/08 10:05:42;;;;;;;7.28;3.45;;;17.50;99.90;;;;;;5045946;28;20490;-69
2021/08/08 10:08:11;;;;;;;10.32;3.60;;;17.50;99.90;;;;;;5054960;28;20064;-73
2021/08/08 10:10:42;;;;;;;7.55;2.78;;;17.60;99.90;;;;;;5046299;28;20040;-71
2021/08/08 10:13:31;;;;;;;8.10;3.22;;;17.70;99.90;;;;;;5044344;28;20110;-73
2021/08/08 10:15:59;;;;;;;9.70;3.33;;;17.80;99.90;;;;;;5045021;28;20033;-72
2021/08/08 10:18:32;;;;;;;8.77;3.50;;;18.00;99.90;;;;;;5045515;28;20053;-72
2021/08/08 10:20:58;;;;;;;4.50;3.22;;;18.10;99.90;;;;;;5043904;28;20082;-72
2021/08/08 10:23:27;;;;;;;12.30;3.28;;;18.10;99.90;;;;;;5045305;28;20092;-72
2021/08/08 10:25:53;;;;;;;6.20;2.90;;;18.10;99.90;;;;;;5045320;28;20104;-73
2021/08/08 10:28:20;;;;;;;8.38;2.60;;;18.10;99.90;;;;;;5045345;28;20022;-71
2021/08/08 10:30:49;;;;;;;6.15;2.20;;;18.00;99.90;;;;;;5043955;28;20390;-70
2021/08/08 10:33:14;;;;;;;10.65;2.72;;;18.00;99.90;;;;;;5044374;28;20120;-70
2021/08/08 10:35:46;;;;;;;4.30;2.42;;;18.10;99.90;;;;;;5045089;28;20068;-74
2021/08/08 10:38:13;;;;;;;9.23;3.80;;;18.20;99.90;;;;;;5044302;28;20033;-73
2021/08/08 10:40:41;;;;;;;10.82;3.08;;;18.40;99.90;;;;;;5045429;28;20025;-69
2021/08/08 10:43:20;;;;;;;3.25;2.10;;;18.50;99.90;;;;;;5045468;28;20044;-74
2021/08/08 10:45:46;;;;;;;2.92;2.20;;;18.60;99.90;;;;;;5045221;28;20033;-72
2021/08/08 10:48:14;;;;;;;5.50;2.25;;;18.80;99.90;;;;;;5043833;28;20032;-69
2021/08/08 10:50:48;;;;;;;14.93;2.90;;;19.00;99.90;;;;;;5045092;28;20025;-73
2021/08/08 10:53:20;;;;;;;4.07;2.28;;;19.20;99.90;;;;;;5045064;28;20047;-71
2021/08/08 10:56:02;;;;;;;11.73;2.50;;;19.40;99.90;;;;;;5043516;28;20390;-71
2021/08/08 10:58:33;;;;;;;3.53;2.17;;;19.60;99.90;;;;;;5043502;28;20061;-74
2021/08/08 11:00:58;;;;;;;5.38;2.20;;;19.80;99.90;;;;;;5044448;28;20030;-71
2021/08/08 11:03:24;;;;;;;10.77;3.00;;;19.60;99.90;;;;;;5043419;28;20136;-71
2021/08/08 11:05:49;;;;;;;5.20;1.95;;;19.40;99.90;;;;;;5044775;28;20032;-71
2021/08/08 11:08:15;;;;;;;8.95;2.78;;;19.30;99.90;;;;;;5043367;28;20028;-69
2021/08/08 11:10:45;;;;;;;6.63;2.55;;;19.30;99.90;;;;;;5043382;28;20101;-69
2021/08/08 11:13:23;;;;;;;5.70;2.47;;;19.40;99.90;;;;;;5044640;28;20055;-73
2021/08/08 11:15:50;;;;;;;9.52;2.65;;;19.60;99.90;;;;;;5044544;28;20045;-70
2021/08/08 11:18:17;;;;;;;6.00;1.85;;;19.60;99.90;;;;;;5044689;28;20025;-73
2021/08/08 11:20:46;;;;;;;5.55;1.95;;;19.70;99.90;;;;;;5043441;28;20025;-72
2021/08/08 11:23:12;;;;;;;4.65;1.77;;;19.80;99.90;;;;;;5044527;28;20040;-72
2021/08/08 11:25:42;;;;;;;4.25;1.80;;;19.80;99.90;;;;;;5044750;28;20048;-72
2021/08/08 11:28:10;;;;;;;7.82;2.05;;;19.80;99.90;;;;;;5043434;28;20033;-70
2021/08/08 11:30:44;;;;;;;10.25;2.33;;;19.70;99.90;;;;;;5043269;28;20386;-73
2021/08/08 11:33:12;;;;;;;4.55;1.90;;;19.60;99.90;;;;;;5044754;28;20045;-69
2021/08/08 11:35:41;;;;;;;2.45;1.60;;;19.50;99.90;;;;;;5044635;28;20492;-72
2021/08/08 11:38:19;;;;;;;10.45;2.83;;;19.60;99.90;;;;;;5044457;28;20025;-72
2021/08/08 11:40:47;;;;;;;3.88;1.83;;;19.70;99.90;;;;;;5043172;28;20034;-71
2021/08/08 11:43:14;;;;;;;3.97;2.08;;;19.60;99.90;;;;;;5044597;28;20036;-71
2021/08/08 11:45:49;;;;;;;3.95;2.58;;;19.60;99.90;;;;;;5044737;28;20029;-73
2021/08/08 11:48:18;;;;;;;;;;;19.40;99.90;;;;;;5043628;28;20037;-72
2021/08/08 11:50:46;;;;;;;7.95;2.58;;;19.30;99.90;;;;;;5059736;28;19909;-71
2021/08/08 11:53:12;;;;;;;3.47;2.10;;;19.30;99.90;;;;;;5044379;28;20030;-72
2021/08/08 11:55:38;;;;;;;8.77;2.42;;;19.10;99.90;;;;;;5043299;28;20026;-72
2021/08/08 11:58:13;;;;;;;2.35;1.38;;;19.00;99.90;;;;;;5059444;28;20029;-72
2021/08/08 12:00:41;;;;;;;3.22;1.70;;;19.00;99.90;;;;;;5059643;28;20033;-72
2021/08/08 12:03:08;;;;;;;6.65;2.28;;;19.10;99.90;;;;;;5044456;28;20026;-71
2021/08/08 12:05:40;;;;;;;9.18;1.92;;;19.10;99.90;;;;;;5044162;28;20045;-70
2021/08/08 12:08:07;;;;;;;3.22;1.70;;;19.00;99.90;;;;;;5046483;28;20391;-72
2021/08/08 12:10:37;;;;;;;3.65;1.73;;;19.20;99.90;;;;;;5046424;28;20056;-71
2021/08/08 12:13:24;;;;;;;6.97;1.67;;;19.30;99.90;;;;;;5047843;28;20144;-69
2021/08/08 12:15:49;;;;;;;5.35;2.35;;;19.30;99.90;;;;;;5047436;28;20432;-70
2021/08/08 12:18:29;;;;;;;3.38;1.70;;;19.40;99.90;;;;;;5047745;28;20029;-73
2021/08/08 12:20:54;;;;;;;2.75;1.77;;;19.70;99.90;;;;;;5047673;28;20021;-70
2021/08/08 12:23:25;;;;;;;2.47;1.65;;;19.90;99.90;;;;;;5047747;28;20028;-73
2021/08/08 12:26:01;;;;;;;2.85;1.30;;;20.10;99.90;;;;;;5047549;28;20029;-73
2021/08/08 12:28:27;;;;;;;7.13;1.50;;;20.50;99.90;;;;;;5047302;28;20025;-72
2021/08/08 12:31:04;;;;;;;7.15;1.88;;;20.80;99.90;;;;;;5047296;28;20088;-73
2021/08/08 12:33:30;;;;;;;2.35;1.13;;;21.20;99.90;;;;;;5047559;28;20022;-71
2021/08/08 12:35:55;;;;;;;5.28;2.17;;;21.50;99.90;;;;;;5047520;28;20096;-74
2021/08/08 12:38:21;;;;;;;14.50;3.08;;;21.80;99.90;;;;;;5045922;28;20021;-69
2021/08/08 12:40:52;;;;;;;6.45;1.65;;;21.90;99.90;;;;;;5045901;28;20022;-73
2021/08/08 12:43:26;;;;;;;5.55;1.88;;;22.10;99.90;;;;;;5047623;28;20034;-70
2021/08/08 12:45:53;;;;;;;2.30;1.27;;;22.30;99.90;;;;;;5047370;28;20026;-72